createdAt,value
2023-03-30T00:01:11.965Z,5.10
2023-03-30T00:03:59.426Z,4.53
2023-03-30T00:06:46.460Z,4.80
2023-03-30T00:09:33.444Z,4.80
2023-03-30T00:12:20.744Z,4.83
2023-03-30T00:15:09.591Z,4.90
2023-03-30T00:17:56.682Z,6.73
2023-03-30T00:20:45.118Z,4.57
2023-03-30T00:23:32.406Z,4.80
2023-03-30T00:26:19.636Z,5.33
2023-03-30T00:29:06.683Z,4.33
2023-03-30T00:31:53.800Z,5.87
2023-03-30T00:34:41.060Z,3.83
2023-03-30T00:37:28.597Z,3.67
2023-03-30T00:40:20.255Z,3.73
2023-03-30T00:43:11.674Z,4.83
2023-03-30T00:45:58.983Z,4.87
2023-03-30T00:48:46.298Z,4.93
2023-03-30T00:51:38.054Z,6.53
2023-03-30T00:54:25.008Z,4.03
2023-03-30T00:57:13.524Z,4.70
2023-03-30T01:00:00.886Z,5.40
2023-03-30T01:02:55.799Z,4.03
2023-03-30T01:05:44.857Z,4.20
2023-03-30T01:08:34.737Z,7.13
2023-03-30T01:11:22.550Z,3.90
2023-03-30T01:14:12.304Z,3.87
2023-03-30T01:17:28.213Z,5.50
2023-03-30T01:20:49.182Z,4.70
2023-03-30T01:24:07.700Z,7.10
2023-03-30T01:27:04.699Z,5.57
2023-03-30T01:30:19.920Z,6.83
2023-03-30T01:33:32.901Z,7.27
2023-03-30T01:36:50.475Z,6.73
2023-03-30T01:40:03.946Z,7.30
2023-03-30T01:43:08.540Z,8.00
2023-03-30T01:46:07.577Z,7.37
2023-03-30T01:49:06.217Z,7.40
2023-03-30T01:52:10.977Z,7.17
2023-03-30T01:55:05.666Z,7.30
2023-03-30T01:58:00.410Z,6.67
2023-03-30T02:00:50.949Z,6.23
2023-03-30T02:03:42.142Z,6.70
2023-03-30T02:06:38.847Z,7.43
2023-03-30T02:09:27.739Z,7.77
2023-03-30T02:12:14.821Z,7.83
2023-03-30T02:15:10.660Z,7.90
2023-03-30T02:17:57.856Z,8.00
2023-03-30T02:20:46.596Z,7.13
2023-03-30T02:23:39.784Z,7.40
2023-03-30T02:26:27.359Z,7.53
2023-03-30T02:29:15.250Z,7.03
2023-03-30T02:32:02.617Z,7.13
2023-03-30T02:35:03.742Z,7.53
2023-03-30T02:38:22.793Z,7.57
2023-03-30T02:41:43.514Z,6.57
2023-03-30T02:44:52.689Z,8.97
2023-03-30T02:47:54.973Z,6.73
2023-03-30T02:51:13.529Z,5.43
2023-03-30T02:54:32.376Z,6.53
2023-03-30T02:58:15.792Z,7.43
2023-03-30T03:01:31.342Z,5.27
2023-03-30T03:04:29.574Z,5.37
2023-03-30T03:07:35.163Z,3.30
2023-03-30T03:10:22.233Z,5.33
2023-03-30T03:13:09.984Z,4.10
2023-03-30T03:15:58.616Z,4.40
2023-03-30T03:18:49.531Z,8.00
2023-03-30T03:21:36.786Z,3.73
2023-03-30T03:24:24.010Z,5.60
2023-03-30T03:27:23.410Z,5.00
2023-03-30T03:30:39.462Z,4.57
2023-03-30T03:33:31.955Z,6.23
2023-03-30T03:36:32.500Z,3.87
2023-03-30T03:39:19.498Z,5.17
2023-03-30T03:42:07.231Z,7.33
2023-03-30T03:44:58.189Z,4.20
2023-03-30T03:47:45.196Z,7.80
2023-03-30T03:50:32.280Z,5.30
2023-03-30T03:53:19.860Z,5.27
2023-03-30T03:56:08.571Z,6.40
2023-03-30T03:58:56.539Z,4.50
2023-03-30T04:01:43.508Z,6.97
2023-03-30T04:04:30.756Z,5.60
2023-03-30T04:07:17.821Z,7.40
2023-03-30T04:10:07.300Z,6.07
2023-03-30T04:13:12.653Z,4.77
2023-03-30T04:16:09.119Z,5.63
2023-03-30T04:19:17.323Z,4.17
2023-03-30T04:22:15.157Z,4.83
2023-03-30T04:25:22.952Z,7.40
2023-03-30T04:28:33.760Z,6.67
2023-03-30T04:31:35.913Z,6.93
2023-03-30T04:34:33.864Z,6.63
2023-03-30T04:37:42.093Z,5.03
2023-03-30T04:41:02.464Z,4.43
2023-03-30T04:44:10.249Z,3.93
2023-03-30T04:47:11.041Z,4.53
2023-03-30T04:50:22.321Z,5.33
2023-03-30T04:53:45.103Z,5.60
2023-03-30T04:56:51.275Z,4.43
2023-03-30T04:59:56.894Z,5.07
2023-03-30T05:02:46.844Z,4.80
2023-03-30T05:05:44.316Z,6.43
2023-03-30T05:08:47.200Z,8.47
2023-03-30T05:11:52.843Z,4.07
2023-03-30T05:15:00.117Z,5.30
2023-03-30T05:18:07.609Z,6.90
2023-03-30T05:21:13.281Z,8.60
2023-03-30T05:24:15.610Z,5.27
2023-03-30T05:27:31.800Z,7.27
2023-03-30T05:30:41.543Z,8.90
2023-03-30T05:33:47.064Z,7.53
2023-03-30T05:36:51.722Z,5.03
2023-03-30T05:40:09.503Z,8.13
2023-03-30T05:43:04.083Z,8.17
2023-03-30T05:46:11.644Z,8.47
2023-03-30T05:49:18.523Z,4.30
2023-03-30T05:52:24.091Z,6.87
2023-03-30T05:55:23.756Z,4.87
2023-03-30T05:58:29.403Z,6.13
2023-03-30T06:01:27.264Z,6.37
2023-03-30T06:04:16.291Z,8.43
2023-03-30T06:07:03.879Z,6.67
2023-03-30T06:09:50.800Z,3.47
2023-03-30T06:12:47.828Z,9.20
2023-03-30T06:15:50.881Z,6.47
2023-03-30T06:18:41.063Z,6.80
2023-03-30T06:21:32.212Z,7.50
2023-03-30T06:24:39.669Z,10.57
2023-03-30T06:27:27.385Z,6.13
2023-03-30T06:30:15.372Z,6.47
2023-03-30T06:33:05.401Z,5.87
2023-03-30T06:36:13.372Z,7.10
2023-03-30T06:39:06.320Z,6.70
2023-03-30T06:41:54.571Z,5.60
2023-03-30T06:45:00.009Z,7.57
2023-03-30T06:47:47.697Z,11.83
2023-03-30T06:50:36.657Z,5.67
2023-03-30T06:53:28.243Z,7.93
2023-03-30T06:56:15.661Z,8.87
2023-03-30T06:59:20.460Z,8.40
2023-03-30T07:02:26.834Z,7.23
2023-03-30T07:05:41.106Z,7.73
2023-03-30T07:08:35.815Z,9.03
2023-03-30T07:11:23.444Z,8.33
2023-03-30T07:14:12.634Z,10.63
2023-03-30T07:16:59.718Z,20.07
2023-03-30T07:19:46.715Z,8.40
2023-03-30T07:22:34.286Z,6.70
2023-03-30T07:25:21.426Z,9.83
2023-03-30T07:28:08.554Z,7.33
2023-03-30T07:31:06.228Z,4.97
2023-03-30T07:33:54.251Z,7.03
2023-03-30T07:36:44.962Z,6.00
2023-03-30T07:39:33.977Z,6.63
2023-03-30T07:42:22.373Z,7.53
2023-03-30T07:45:10.591Z,5.27
2023-03-30T07:47:58.198Z,6.90
2023-03-30T07:50:45.687Z,6.07
2023-03-30T07:53:33.389Z,8.03
2023-03-30T07:56:22.863Z,6.10
2023-03-30T07:59:13.600Z,5.40
2023-03-30T08:02:02.460Z,7.80
2023-03-30T08:05:00.888Z,5.57
2023-03-30T08:07:55.877Z,8.57
2023-03-30T08:10:48.404Z,7.90
2023-03-30T08:13:37.216Z,6.50
2023-03-30T08:16:25.668Z,5.77
2023-03-30T08:19:12.649Z,6.50
2023-03-30T08:22:01.756Z,6.57
2023-03-30T08:24:48.736Z,8.67
2023-03-30T08:27:36.171Z,5.40
2023-03-30T08:30:23.251Z,3.90
2023-03-30T08:33:10.424Z,6.27
2023-03-30T08:35:57.545Z,8.43
2023-03-30T08:38:46.312Z,8.80
2023-03-30T08:41:43.745Z,5.77
2023-03-30T08:44:35.292Z,7.23
2023-03-30T08:47:32.886Z,4.27
2023-03-30T08:50:22.899Z,7.17
2023-03-30T08:53:11.631Z,6.27
2023-03-30T08:56:04.756Z,9.20
2023-03-30T08:59:12.805Z,6.43
2023-03-30T09:02:35.614Z,7.03
2023-03-30T09:05:32.833Z,6.07
2023-03-30T09:08:29.020Z,7.53
2023-03-30T09:11:29.916Z,8.43
2023-03-30T09:14:27.833Z,11.77
2023-03-30T09:17:24.073Z,19.30
2023-03-30T09:20:24.636Z,14.53
2023-03-30T09:23:15.553Z,10.17
2023-03-30T09:26:34.842Z,8.30
2023-03-30T09:29:28.283Z,12.00
2023-03-30T09:32:41.830Z,8.47
2023-03-30T09:35:42.981Z,6.97
2023-03-30T09:38:32.281Z,4.87
2023-03-30T09:41:37.689Z,7.17
2023-03-30T09:44:37.224Z,8.10
2023-03-30T09:47:27.420Z,6.23
2023-03-30T09:50:22.985Z,7.97
2023-03-30T09:53:29.514Z,5.03
2023-03-30T09:56:19.954Z,5.13
2023-03-30T09:59:28.662Z,4.33
2023-03-30T10:02:18.389Z,5.77
2023-03-30T10:05:06.522Z,18.07
2023-03-30T10:08:21.769Z,18.57
2023-03-30T10:11:11.531Z,19.63
2023-03-30T10:13:59.605Z,23.87
2023-03-30T10:16:46.639Z,21.13
2023-03-30T10:19:38.013Z,16.47
2023-03-30T10:22:27.095Z,10.03
2023-03-30T10:25:19.191Z,8.57
2023-03-30T10:28:27.053Z,8.97
2023-03-30T10:31:16.292Z,6.27
2023-03-30T10:34:12.917Z,8.57
2023-03-30T10:37:00.333Z,10.10
2023-03-30T10:39:48.515Z,8.83
2023-03-30T10:42:36.395Z,7.57
2023-03-30T10:45:45.849Z,8.37
2023-03-30T10:48:44.970Z,5.57
2023-03-30T10:51:59.342Z,5.83
2023-03-30T10:54:56.960Z,9.50
2023-03-30T10:58:00.956Z,4.87
2023-03-30T11:01:12.445Z,9.03
2023-03-30T11:04:22.538Z,10.07
2023-03-30T11:07:19.914Z,8.03
2023-03-30T11:10:44.164Z,8.53
2023-03-30T11:13:36.466Z,6.00
2023-03-30T11:16:33.341Z,10.47
2023-03-30T11:19:29.083Z,8.90
2023-03-30T11:22:32.930Z,6.03
2023-03-30T11:25:30.129Z,10.13
2023-03-30T11:28:52.781Z,7.10
2023-03-30T11:31:44.371Z,10.27
2023-03-30T11:34:39.696Z,10.17
2023-03-30T11:37:33.846Z,11.10
2023-03-30T11:40:26.894Z,6.43
2023-03-30T11:43:19.567Z,6.60
2023-03-30T11:46:10.020Z,8.43
2023-03-30T11:49:32.584Z,8.13
2023-03-30T11:52:36.492Z,8.03
2023-03-30T11:55:29.797Z,7.80
2023-03-30T11:58:34.749Z,5.57
2023-03-30T12:01:54.001Z,7.00
2023-03-30T12:04:55.933Z,6.83
2023-03-30T12:08:07.518Z,8.73
2023-03-30T12:11:02.374Z,6.20
2023-03-30T12:13:52.429Z,5.00
2023-03-30T12:16:49.577Z,5.70
2023-03-30T12:20:10.671Z,5.87
2023-03-30T12:23:16.266Z,6.43
2023-03-30T12:26:07.229Z,7.07
2023-03-30T12:29:32.617Z,6.83
2023-03-30T12:32:06.996Z,4.67
2023-03-30T12:34:54.615Z,4.03
2023-03-30T12:37:48.057Z,4.63
2023-03-30T12:40:38.156Z,2.60
2023-03-30T12:43:34.886Z,7.70
2023-03-30T12:46:49.948Z,4.60
2023-03-30T12:49:52.736Z,3.30
2023-03-30T12:53:14.694Z,4.87
2023-03-30T12:56:23.337Z,6.40
2023-03-30T12:59:36.157Z,6.60
2023-03-30T13:02:41.538Z,7.00
2023-03-30T13:05:38.661Z,3.83
2023-03-30T13:08:36.452Z,4.03
2023-03-30T13:11:23.872Z,4.03
2023-03-30T13:14:27.852Z,5.37
2023-03-30T13:17:20.356Z,3.03
2023-03-30T13:20:28.247Z,5.37
2023-03-30T13:23:19.363Z,5.47
2023-03-30T13:26:34.904Z,3.43
2023-03-30T13:29:24.249Z,4.97
2023-03-30T13:32:40.976Z,10.20
2023-03-30T13:35:52.351Z,8.07
2023-03-30T13:38:45.459Z,4.60
2023-03-30T13:41:46.488Z,4.20
2023-03-30T13:44:41.326Z,4.00
2023-03-30T13:47:34.243Z,4.47
2023-03-30T13:50:28.543Z,2.53
2023-03-30T13:53:17.060Z,4.93
2023-03-30T13:56:07.618Z,3.87
2023-03-30T13:59:07.632Z,4.10
2023-03-30T14:01:58.835Z,4.50
2023-03-30T14:04:46.103Z,3.50
2023-03-30T14:07:43.527Z,3.80
2023-03-30T14:10:30.764Z,3.70
2023-03-30T14:13:18.644Z,2.43
2023-03-30T14:16:06.818Z,2.50
2023-03-30T14:19:09.597Z,3.23
2023-03-30T14:22:21.673Z,2.63
2023-03-30T14:25:31.558Z,2.47
2023-03-30T14:28:21.490Z,2.63
2023-03-30T14:31:14.782Z,2.00
2023-03-30T14:34:01.725Z,4.03
2023-03-30T14:36:48.755Z,2.40
2023-03-30T14:39:42.017Z,2.77
2023-03-30T14:42:36.080Z,2.00
2023-03-30T14:45:23.100Z,3.27
2023-03-30T14:48:23.541Z,2.43
2023-03-30T14:51:24.328Z,2.00
2023-03-30T14:54:18.060Z,1.90
2023-03-30T14:57:07.619Z,2.67
2023-03-30T14:59:58.975Z,2.03
2023-03-30T15:02:49.241Z,1.60
2023-03-30T15:05:42.583Z,2.20
2023-03-30T15:08:37.649Z,2.73
2023-03-30T15:11:26.958Z,2.00
2023-03-30T15:14:19.042Z,1.83
2023-03-30T15:17:14.985Z,1.57
2023-03-30T15:20:06.919Z,2.03
2023-03-30T15:22:54.664Z,2.10
2023-03-30T15:25:43.368Z,3.33
2023-03-30T15:28:35.028Z,1.93
2023-03-30T15:31:23.042Z,2.20
2023-03-30T15:34:17.652Z,2.17
2023-03-30T15:37:21.502Z,1.80
2023-03-30T15:40:37.857Z,1.77
2023-03-30T15:43:27.436Z,2.80
2023-03-30T15:46:15.909Z,4.43
2023-03-30T15:49:04.240Z,3.13
2023-03-30T15:51:53.501Z,3.47
2023-03-30T15:54:44.864Z,2.87
2023-03-30T15:57:31.906Z,2.90
2023-03-30T16:00:21.932Z,3.20
2023-03-30T16:03:13.033Z,2.50
2023-03-30T16:06:00.149Z,3.13
2023-03-30T16:08:47.224Z,2.43
2023-03-30T16:11:34.413Z,5.60
2023-03-30T16:14:21.409Z,2.93
2023-03-30T16:17:12.928Z,3.53
2023-03-30T16:20:00.134Z,4.47
2023-03-30T16:22:47.972Z,2.40
2023-03-30T16:25:44.776Z,2.27
2023-03-30T16:28:32.420Z,2.33
2023-03-30T16:31:23.929Z,7.07
2023-03-30T16:34:11.005Z,3.17
2023-03-30T16:36:57.979Z,5.17
2023-03-30T16:39:45.569Z,4.27
2023-03-30T16:42:32.584Z,2.10
2023-03-30T16:45:19.722Z,4.13
2023-03-30T16:48:06.895Z,4.43
2023-03-30T16:50:56.557Z,2.23
2023-03-30T16:53:43.554Z,2.60
2023-03-30T16:56:31.022Z,3.93
2023-03-30T16:59:25.173Z,2.80
2023-03-30T17:02:16.819Z,2.03
2023-03-30T17:05:05.555Z,1.63
2023-03-30T17:07:55.775Z,1.27
2023-03-30T17:10:42.956Z,2.30
2023-03-30T17:13:31.875Z,2.87
2023-03-30T17:16:18.826Z,2.60
2023-03-30T17:19:09.641Z,1.90
2023-03-30T17:21:56.641Z,2.20
2023-03-30T17:24:43.567Z,1.27
2023-03-30T17:27:30.607Z,2.40
2023-03-30T17:30:21.227Z,1.10
2023-03-30T17:33:10.738Z,1.60
2023-03-30T17:36:10.347Z,1.33
2023-03-30T17:38:57.373Z,1.10
2023-03-30T17:41:44.372Z,4.20
2023-03-30T17:44:32.603Z,1.80
2023-03-30T17:47:19.648Z,2.27
2023-03-30T17:50:23.137Z,2.60
2023-03-30T17:53:14.457Z,1.60
2023-03-30T17:56:01.369Z,1.63
2023-03-30T17:58:49.469Z,1.97
2023-03-30T18:01:36.538Z,1.13
2023-03-30T18:04:23.474Z,1.40
2023-03-30T18:07:11.842Z,4.13
2023-03-30T18:09:58.760Z,1.30
2023-03-30T18:12:45.840Z,1.63
2023-03-30T18:15:33.548Z,1.07
2023-03-30T18:18:24.165Z,1.50
2023-03-30T18:21:11.585Z,1.53
2023-03-30T18:23:58.604Z,2.07
2023-03-30T18:26:45.759Z,1.37
2023-03-30T18:29:33.912Z,2.70
2023-03-30T18:32:20.894Z,2.37
2023-03-30T18:35:08.397Z,1.63
2023-03-30T18:37:56.403Z,1.63
2023-03-30T18:40:46.290Z,2.77
2023-03-30T18:43:33.506Z,1.67
2023-03-30T18:46:20.494Z,3.43
2023-03-30T18:49:14.099Z,3.80
2023-03-30T18:52:01.057Z,3.17
2023-03-30T18:54:47.957Z,1.60
2023-03-30T18:57:34.974Z,2.00
2023-03-30T19:00:26.217Z,2.43
2023-03-30T19:03:14.176Z,1.67
2023-03-30T19:06:01.288Z,2.03
2023-03-30T19:08:48.637Z,3.33
2023-03-30T19:11:35.652Z,1.63
2023-03-30T19:14:22.607Z,1.97
2023-03-30T19:17:09.695Z,1.67
2023-03-30T19:19:56.758Z,1.20
2023-03-30T19:22:44.079Z,1.50
2023-03-30T19:25:31.803Z,1.10
2023-03-30T19:28:19.028Z,1.27
2023-03-30T19:35:13.984Z,1.90
2023-03-30T19:38:01.200Z,1.37
2023-03-30T19:40:48.162Z,1.40
2023-03-30T19:43:35.426Z,1.93
2023-03-30T19:46:22.466Z,2.43
2023-03-30T19:49:09.410Z,2.10
2023-03-30T19:51:56.443Z,2.77
2023-03-30T19:54:43.384Z,1.90
2023-03-30T19:57:30.393Z,2.13
2023-03-30T20:00:18.507Z,1.60
2023-03-30T20:03:05.961Z,1.30
2023-03-30T20:05:53.056Z,1.60
2023-03-30T20:08:40.625Z,2.17
2023-03-30T20:11:27.743Z,2.40
2023-03-30T20:14:15.508Z,2.53
2023-03-30T20:17:02.710Z,1.73
2023-03-30T20:19:49.662Z,2.20
2023-03-30T20:22:39.229Z,2.77
2023-03-30T20:25:26.558Z,3.17
2023-03-30T20:28:13.575Z,2.10
2023-03-30T20:31:01.704Z,2.37
2023-03-30T20:33:49.237Z,1.83
2023-03-30T20:36:36.398Z,3.20
2023-03-30T20:39:27.112Z,3.77
2023-03-30T20:42:14.190Z,2.40
2023-03-30T20:45:01.467Z,2.97
2023-03-30T20:47:50.052Z,3.57
2023-03-30T20:50:37.220Z,2.80
2023-03-30T20:53:24.960Z,2.20
2023-03-30T20:56:11.967Z,2.20
2023-03-30T20:58:58.945Z,4.10
2023-03-30T21:01:48.980Z,4.20
2023-03-30T21:04:36.501Z,5.40
2023-03-30T21:07:24.685Z,3.30
2023-03-30T21:10:11.652Z,3.77
2023-03-30T21:12:58.599Z,4.13
2023-03-30T21:15:45.637Z,3.67
2023-03-30T21:18:34.384Z,3.43
2023-03-30T21:21:21.681Z,4.87
2023-03-30T21:24:10.615Z,2.37
2023-03-30T21:26:57.640Z,2.60
2023-03-30T21:29:44.581Z,2.50
2023-03-30T21:32:31.776Z,4.60
2023-03-30T21:35:18.802Z,3.00
2023-03-30T21:38:05.919Z,2.63
2023-03-30T21:41:12.837Z,4.30
2023-03-30T21:43:59.893Z,3.47
2023-03-30T21:46:47.030Z,5.10
2023-03-30T21:49:34.162Z,3.77
2023-03-30T21:52:21.214Z,1.73
2023-03-30T21:55:08.564Z,2.83
2023-03-30T21:57:55.627Z,4.00
2023-03-30T22:00:46.753Z,3.43
2023-03-30T22:03:34.046Z,2.27
2023-03-30T22:06:22.428Z,1.83
2023-03-30T22:09:09.613Z,2.30
2023-03-30T22:11:56.625Z,1.93
2023-03-30T22:14:43.580Z,2.23
2023-03-30T22:17:34.992Z,2.30
2023-03-30T22:20:22.307Z,2.20
2023-03-30T22:23:09.280Z,2.33
2023-03-30T22:25:56.339Z,2.77
2023-03-30T22:28:43.771Z,3.67
2023-03-30T22:31:30.775Z,2.43
2023-03-30T22:34:17.927Z,2.53
2023-03-30T22:37:04.877Z,2.60
2023-03-30T22:39:51.835Z,1.97
2023-03-30T22:42:38.810Z,3.43
2023-03-30T22:45:25.941Z,1.97
2023-03-30T22:48:12.974Z,1.50
2023-03-30T22:51:04.490Z,2.03
2023-03-30T22:53:59.286Z,1.70
2023-03-30T22:56:46.646Z,2.07
2023-03-30T22:59:33.783Z,1.33
2023-03-30T23:02:21.177Z,1.57
2023-03-30T23:05:08.864Z,2.07
2023-03-30T23:07:55.835Z,2.33
2023-03-30T23:10:43.750Z,2.13
2023-03-30T23:13:31.592Z,1.40
2023-03-30T23:16:19.131Z,1.60
2023-03-30T23:19:06.826Z,1.77
2023-03-30T23:21:54.343Z,1.20
2023-03-30T23:24:41.407Z,1.30
2023-03-30T23:27:28.379Z,1.33
2023-03-30T23:30:15.500Z,2.17
2023-03-30T23:33:02.488Z,1.47
2023-03-30T23:35:50.780Z,1.50
2023-03-30T23:38:37.895Z,1.57
2023-03-30T23:41:24.921Z,1.27
2023-03-30T23:44:11.925Z,1.30
2023-03-30T23:46:58.882Z,1.57
2023-03-30T23:49:46.106Z,1.10
2023-03-30T23:52:33.076Z,1.80
2023-03-30T23:55:20.141Z,1.03
2023-03-30T23:58:07.286Z,1.03
